sensor_id;sensor_type;location;lat;lon;timestamp;P1;P2;P0
70520;PMS5003;58442;52.716;23.560;2023-07-30T00:01:57;4;4;3
70520;PMS5003;58442;52.716;23.560;2023-07-30T00:04:07;6;6;5
70520;PMS5003;58442;52.716;23.560;2023-07-30T00:06:09;5;5;3
70520;PMS5003;58442;52.716;23.560;2023-07-30T00:08:10;6;6;5
70520;PMS5003;58442;52.716;23.560;2023-07-30T00:10:12;6;6;5
70520;PMS5003;58442;52.716;23.560;2023-07-30T00:12:22;8;8;6
70520;PMS5003;58442;52.716;23.560;2023-07-30T00:14:24;5;5;5
70520;PMS5003;58442;52.716;23.560;2023-07-30T00:16:25;9;9;7
70520;PMS5003;58442;52.716;23.560;2023-07-30T00:18:27;6;6;4
70520;PMS5003;58442;52.716;23.560;2023-07-30T00:20:37;8;8;7
70520;PMS5003;58442;52.716;23.560;2023-07-30T00:22:38;6;6;5
70520;PMS5003;58442;52.716;23.560;2023-07-30T00:24:40;6;6;5
70520;PMS5003;58442;52.716;23.560;2023-07-30T00:26:41;3;3;2
70520;PMS5003;58442;52.716;23.560;2023-07-30T00:28:52;5;5;5
70520;PMS5003;58442;52.716;23.560;2023-07-30T00:30:53;6;6;6
70520;PMS5003;58442;52.716;23.560;2023-07-30T00:32:54;9;9;6
70520;PMS5003;58442;52.716;23.560;2023-07-30T00:34:56;7;7;6
70520;PMS5003;58442;52.716;23.560;2023-07-30T00:37:06;7;7;5
70520;PMS5003;58442;52.716;23.560;2023-07-30T00:39:08;6;6;5
70520;PMS5003;58442;52.716;23.560;2023-07-30T00:41:11;8;8;7
70520;PMS5003;58442;52.716;23.560;2023-07-30T00:43:13;10;10;7
70520;PMS5003;58442;52.716;23.560;2023-07-30T00:45:21;7;7;6
70520;PMS5003;58442;52.716;23.560;2023-07-30T00:47:23;5;5;5
70520;PMS5003;58442;52.716;23.560;2023-07-30T00:49:25;10;10;8
70520;PMS5003;58442;52.716;23.560;2023-07-30T00:51:26;7;7;6
70520;PMS5003;58442;52.716;23.560;2023-07-30T00:53:36;7;7;6
70520;PMS5003;58442;52.716;23.560;2023-07-30T00:55:38;6;6;5
70520;PMS5003;58442;52.716;23.560;2023-07-30T00:57:39;6;6;5
70520;PMS5003;58442;52.716;23.560;2023-07-30T00:59:44;8;8;7
70520;PMS5003;58442;52.716;23.560;2023-07-30T01:01:51;9;9;6
70520;PMS5003;58442;52.716;23.560;2023-07-30T01:03:53;7;7;6
70520;PMS5003;58442;52.716;23.560;2023-07-30T01:05:55;7;7;6
70520;PMS5003;58442;52.716;23.560;2023-07-30T01:07:57;8;8;6
70520;PMS5003;58442;52.716;23.560;2023-07-30T01:10:06;8;8;7
70520;PMS5003;58442;52.716;23.560;2023-07-30T01:12:08;9;9;8
70520;PMS5003;58442;52.716;23.560;2023-07-30T01:14:10;5;5;4
70520;PMS5003;58442;52.716;23.560;2023-07-30T01:16:15;7;7;5
70520;PMS5003;58442;52.716;23.560;2023-07-30T01:18:20;6;6;6
70520;PMS5003;58442;52.716;23.560;2023-07-30T01:20:22;7;7;6
70520;PMS5003;58442;52.716;23.560;2023-07-30T01:22:23;8;8;5
70520;PMS5003;58442;52.716;23.560;2023-07-30T01:24:25;8;8;7
70520;PMS5003;58442;52.716;23.560;2023-07-30T01:28:57;6;6;5
70520;PMS5003;58442;52.716;23.560;2023-07-30T01:31:02;8;8;7
70520;PMS5003;58442;52.716;23.560;2023-07-30T01:33:05;6;6;5
70520;PMS5003;58442;52.716;23.560;2023-07-30T01:35:08;7;7;6
70520;PMS5003;58442;52.716;23.560;2023-07-30T01:37:12;6;6;5
70520;PMS5003;58442;52.716;23.560;2023-07-30T01:39:15;7;7;6
70520;PMS5003;58442;52.716;23.560;2023-07-30T01:41:18;7;7;5
70520;PMS5003;58442;52.716;23.560;2023-07-30T01:43:20;5;5;5
70520;PMS5003;58442;52.716;23.560;2023-07-30T01:45:26;6;6;5
70520;PMS5003;58442;52.716;23.560;2023-07-30T01:47:27;7;7;6
70520;PMS5003;58442;52.716;23.560;2023-07-30T01:49:29;7;7;7
70520;PMS5003;58442;52.716;23.560;2023-07-30T01:51:30;8;8;7
70520;PMS5003;58442;52.716;23.560;2023-07-30T01:53:41;7;7;6
70520;PMS5003;58442;52.716;23.560;2023-07-30T01:55:42;6;6;6
70520;PMS5003;58442;52.716;23.560;2023-07-30T01:57:46;6;6;5
70520;PMS5003;58442;52.716;23.560;2023-07-30T01:59:48;4;4;4
70520;PMS5003;58442;52.716;23.560;2023-07-30T02:01:55;5;5;4
70520;PMS5003;58442;52.716;23.560;2023-07-30T02:03:57;7;7;6
70520;PMS5003;58442;52.716;23.560;2023-07-30T02:05:58;6;6;6
70520;PMS5003;58442;52.716;23.560;2023-07-30T02:08:00;7;7;7
70520;PMS5003;58442;52.716;23.560;2023-07-30T02:10:10;5;5;5
70520;PMS5003;58442;52.716;23.560;2023-07-30T02:12:11;7;7;7
70520;PMS5003;58442;52.716;23.560;2023-07-30T02:14:13;8;8;7
70520;PMS5003;58442;52.716;23.560;2023-07-30T02:16:14;4;4;4
70520;PMS5003;58442;52.716;23.560;2023-07-30T02:18:25;7;7;5
70520;PMS5003;58442;52.716;23.560;2023-07-30T02:20:26;8;8;6
70520;PMS5003;58442;52.716;23.560;2023-07-30T02:22:28;11;10;7
70520;PMS5003;58442;52.716;23.560;2023-07-30T02:24:29;9;9;7
70520;PMS5003;58442;52.716;23.560;2023-07-30T02:26:40;7;7;4
70520;PMS5003;58442;52.716;23.560;2023-07-30T02:28:41;8;8;7
70520;PMS5003;58442;52.716;23.560;2023-07-30T02:30:43;7;7;6
70520;PMS5003;58442;52.716;23.560;2023-07-30T02:32:45;7;7;6
70520;PMS5003;58442;52.716;23.560;2023-07-30T02:34:54;8;8;7
70520;PMS5003;58442;52.716;23.560;2023-07-30T02:36:56;9;9;8
70520;PMS5003;58442;52.716;23.560;2023-07-30T02:38:57;9;9;5
70520;PMS5003;58442;52.716;23.560;2023-07-30T02:40:58;8;8;7
70520;PMS5003;58442;52.716;23.560;2023-07-30T02:43:09;10;10;8
70520;PMS5003;58442;52.716;23.560;2023-07-30T02:45:10;7;7;6
70520;PMS5003;58442;52.716;23.560;2023-07-30T02:47:12;9;9;7
70520;PMS5003;58442;52.716;23.560;2023-07-30T02:49:13;7;7;6
70520;PMS5003;58442;52.716;23.560;2023-07-30T02:51:24;9;9;8
70520;PMS5003;58442;52.716;23.560;2023-07-30T02:53:25;8;8;7
70520;PMS5003;58442;52.716;23.560;2023-07-30T02:55:27;6;6;5
70520;PMS5003;58442;52.716;23.560;2023-07-30T02:57:28;7;7;6
70520;PMS5003;58442;52.716;23.560;2023-07-30T02:59:38;9;9;8
70520;PMS5003;58442;52.716;23.560;2023-07-30T03:01:41;7;7;6
70520;PMS5003;58442;52.716;23.560;2023-07-30T03:03:42;9;9;8
70520;PMS5003;58442;52.716;23.560;2023-07-30T03:05:44;6;6;6
70520;PMS5003;58442;52.716;23.560;2023-07-30T03:07:53;7;7;6
70520;PMS5003;58442;52.716;23.560;2023-07-30T03:09:55;9;9;7
70520;PMS5003;58442;52.716;23.560;2023-07-30T03:11:56;7;7;6
70520;PMS5003;58442;52.716;23.560;2023-07-30T03:13:57;5;5;4
70520;PMS5003;58442;52.716;23.560;2023-07-30T03:16:08;7;7;6
70520;PMS5003;58442;52.716;23.560;2023-07-30T03:18:09;7;7;5
70520;PMS5003;58442;52.716;23.560;2023-07-30T03:20:11;9;9;6
70520;PMS5003;58442;52.716;23.560;2023-07-30T03:22:12;6;6;4
70520;PMS5003;58442;52.716;23.560;2023-07-30T03:24:23;7;7;6
70520;PMS5003;58442;52.716;23.560;2023-07-30T03:26:24;8;8;7
70520;PMS5003;58442;52.716;23.560;2023-07-30T03:28:26;9;9;7
70520;PMS5003;58442;52.716;23.560;2023-07-30T03:30:27;7;7;6
70520;PMS5003;58442;52.716;23.560;2023-07-30T03:32:37;8;8;7
70520;PMS5003;58442;52.716;23.560;2023-07-30T03:34:40;8;8;6
70520;PMS5003;58442;52.716;23.560;2023-07-30T03:36:42;10;10;7
70520;PMS5003;58442;52.716;23.560;2023-07-30T03:38:43;7;7;7
70520;PMS5003;58442;52.716;23.560;2023-07-30T03:40:52;7;7;6
70520;PMS5003;58442;52.716;23.560;2023-07-30T03:42:54;7;7;5
70520;PMS5003;58442;52.716;23.560;2023-07-30T03:44:55;10;10;8
70520;PMS5003;58442;52.716;23.560;2023-07-30T03:46:56;6;6;5
70520;PMS5003;58442;52.716;23.560;2023-07-30T03:49:07;6;6;5
70520;PMS5003;58442;52.716;23.560;2023-07-30T03:51:08;8;8;7
70520;PMS5003;58442;52.716;23.560;2023-07-30T03:53:10;9;9;7
70520;PMS5003;58442;52.716;23.560;2023-07-30T03:55:12;4;4;2
70520;PMS5003;58442;52.716;23.560;2023-07-30T03:57:22;9;9;7
70520;PMS5003;58442;52.716;23.560;2023-07-30T03:59:23;6;6;6
70520;PMS5003;58442;52.716;23.560;2023-07-30T04:01:25;8;8;7
70520;PMS5003;58442;52.716;23.560;2023-07-30T04:03:26;7;7;6
70520;PMS5003;58442;52.716;23.560;2023-07-30T04:05:36;5;5;5
70520;PMS5003;58442;52.716;23.560;2023-07-30T04:07:38;9;9;6
70520;PMS5003;58442;52.716;23.560;2023-07-30T04:09:39;10;10;8
70520;PMS5003;58442;52.716;23.560;2023-07-30T04:11:41;10;10;8
70520;PMS5003;58442;52.716;23.560;2023-07-30T04:13:51;7;7;5
70520;PMS5003;58442;52.716;23.560;2023-07-30T04:15:53;7;7;5
70520;PMS5003;58442;52.716;23.560;2023-07-30T04:17:54;7;7;6
70520;PMS5003;58442;52.716;23.560;2023-07-30T04:19:55;8;8;7
70520;PMS5003;58442;52.716;23.560;2023-07-30T04:22:06;6;6;5
70520;PMS5003;58442;52.716;23.560;2023-07-30T04:24:07;8;8;8
70520;PMS5003;58442;52.716;23.560;2023-07-30T04:26:09;8;8;7
70520;PMS5003;58442;52.716;23.560;2023-07-30T04:28:10;9;9;7
70520;PMS5003;58442;52.716;23.560;2023-07-30T04:30:21;7;7;6
70520;PMS5003;58442;52.716;23.560;2023-07-30T04:32:22;9;9;6
70520;PMS5003;58442;52.716;23.560;2023-07-30T04:34:23;8;8;7
70520;PMS5003;58442;52.716;23.560;2023-07-30T04:36:25;9;9;7
70520;PMS5003;58442;52.716;23.560;2023-07-30T04:38:35;8;8;6
70520;PMS5003;58442;52.716;23.560;2023-07-30T04:40:37;10;10;9
70520;PMS5003;58442;52.716;23.560;2023-07-30T04:42:39;9;9;8
70520;PMS5003;58442;52.716;23.560;2023-07-30T04:44:40;9;9;7
70520;PMS5003;58442;52.716;23.560;2023-07-30T04:46:50;9;9;7
70520;PMS5003;58442;52.716;23.560;2023-07-30T04:48:51;11;11;8
70520;PMS5003;58442;52.716;23.560;2023-07-30T04:50:53;10;10;8
70520;PMS5003;58442;52.716;23.560;2023-07-30T04:52:54;9;9;7
70520;PMS5003;58442;52.716;23.560;2023-07-30T04:55:05;7;7;5
70520;PMS5003;58442;52.716;23.560;2023-07-30T04:57:07;7;7;4
70520;PMS5003;58442;52.716;23.560;2023-07-30T04:59:08;9;9;7
70520;PMS5003;58442;52.716;23.560;2023-07-30T05:01:10;9;9;7
70520;PMS5003;58442;52.716;23.560;2023-07-30T05:03:20;9;9;7
70520;PMS5003;58442;52.716;23.560;2023-07-30T05:05:21;10;10;8
70520;PMS5003;58442;52.716;23.560;2023-07-30T05:07:23;11;11;8
70520;PMS5003;58442;52.716;23.560;2023-07-30T05:09:24;10;10;7
70520;PMS5003;58442;52.716;23.560;2023-07-30T05:11:34;8;8;6
70520;PMS5003;58442;52.716;23.560;2023-07-30T05:13:36;6;6;4
70520;PMS5003;58442;52.716;23.560;2023-07-30T05:15:37;8;8;7
70520;PMS5003;58442;52.716;23.560;2023-07-30T05:17:38;8;8;7
70520;PMS5003;58442;52.716;23.560;2023-07-30T05:19:49;12;12;9
70520;PMS5003;58442;52.716;23.560;2023-07-30T05:21:50;9;9;7
70520;PMS5003;58442;52.716;23.560;2023-07-30T05:23:52;11;11;9
70520;PMS5003;58442;52.716;23.560;2023-07-30T05:25:53;13;13;9
70520;PMS5003;58442;52.716;23.560;2023-07-30T05:28:04;10;10;8
70520;PMS5003;58442;52.716;23.560;2023-07-30T05:30:05;12;12;10
70520;PMS5003;58442;52.716;23.560;2023-07-30T05:32:08;19;19;14
70520;PMS5003;58442;52.716;23.560;2023-07-30T05:34:09;13;13;8
70520;PMS5003;58442;52.716;23.560;2023-07-30T05:36:19;12;12;8
70520;PMS5003;58442;52.716;23.560;2023-07-30T05:38:21;11;11;9
70520;PMS5003;58442;52.716;23.560;2023-07-30T05:40:22;12;12;9
70520;PMS5003;58442;52.716;23.560;2023-07-30T05:42:24;13;13;10
70520;PMS5003;58442;52.716;23.560;2023-07-30T05:44:33;11;11;9
70520;PMS5003;58442;52.716;23.560;2023-07-30T05:46:35;11;11;9
70520;PMS5003;58442;52.716;23.560;2023-07-30T05:48:36;12;12;10
70520;PMS5003;58442;52.716;23.560;2023-07-30T05:50:37;11;11;9
70520;PMS5003;58442;52.716;23.560;2023-07-30T05:52:48;7;7;7
70520;PMS5003;58442;52.716;23.560;2023-07-30T05:54:49;11;11;7
70520;PMS5003;58442;52.716;23.560;2023-07-30T05:56:51;14;14;10
70520;PMS5003;58442;52.716;23.560;2023-07-30T05:58:52;15;14;10
70520;PMS5003;58442;52.716;23.560;2023-07-30T06:01:03;9;9;7
70520;PMS5003;58442;52.716;23.560;2023-07-30T06:03:04;10;10;8
70520;PMS5003;58442;52.716;23.560;2023-07-30T06:05:09;12;12;9
70520;PMS5003;58442;52.716;23.560;2023-07-30T06:07:10;13;13;9
70520;PMS5003;58442;52.716;23.560;2023-07-30T06:09:17;13;13;10
70520;PMS5003;58442;52.716;23.560;2023-07-30T06:11:19;13;13;9
70520;PMS5003;58442;52.716;23.560;2023-07-30T06:13:20;11;11;10
70520;PMS5003;58442;52.716;23.560;2023-07-30T06:15:22;9;9;8
70520;PMS5003;58442;52.716;23.560;2023-07-30T06:17:32;12;12;10
70520;PMS5003;58442;52.716;23.560;2023-07-30T06:19:34;9;9;8
70520;PMS5003;58442;52.716;23.560;2023-07-30T06:21:35;10;10;9
70520;PMS5003;58442;52.716;23.560;2023-07-30T06:23:36;16;16;11
70520;PMS5003;58442;52.716;23.560;2023-07-30T06:25:47;12;12;10
70520;PMS5003;58442;52.716;23.560;2023-07-30T06:27:48;11;11;10
70520;PMS5003;58442;52.716;23.560;2023-07-30T06:29:50;12;12;12
70520;PMS5003;58442;52.716;23.560;2023-07-30T06:31:51;12;12;9
70520;PMS5003;58442;52.716;23.560;2023-07-30T06:34:02;30;30;20
70520;PMS5003;58442;52.716;23.560;2023-07-30T06:36:03;20;20;14
70520;PMS5003;58442;52.716;23.560;2023-07-30T06:38:06;43;37;27
70520;PMS5003;58442;52.716;23.560;2023-07-30T06:40:09;63;53;35
70520;PMS5003;58442;52.716;23.560;2023-07-30T06:42:16;46;39;27
70520;PMS5003;58442;52.716;23.560;2023-07-30T06:44:18;57;48;32
70520;PMS5003;58442;52.716;23.560;2023-07-30T06:46:19;31;30;20
70520;PMS5003;58442;52.716;23.560;2023-07-30T06:48:20;19;19;16
70520;PMS5003;58442;52.716;23.560;2023-07-30T06:50:31;63;52;34
70520;PMS5003;58442;52.716;23.560;2023-07-30T06:52:32;26;26;18
70520;PMS5003;58442;52.716;23.560;2023-07-30T06:54:34;34;32;22
70520;PMS5003;58442;52.716;23.560;2023-07-30T06:56:35;14;14;12
70520;PMS5003;58442;52.716;23.560;2023-07-30T06:58:46;15;15;12
70520;PMS5003;58442;52.716;23.560;2023-07-30T07:00:47;14;14;12
70520;PMS5003;58442;52.716;23.560;2023-07-30T07:02:49;3;3;1
70520;PMS5003;58442;52.716;23.560;2023-07-30T07:04:50;20;20;16
70520;PMS5003;58442;52.716;23.560;2023-07-30T07:07:01;51;43;28
70520;PMS5003;58442;52.716;23.560;2023-07-30T07:09:04;47;41;27
70520;PMS5003;58442;52.716;23.560;2023-07-30T07:11:06;51;42;26
70520;PMS5003;58442;52.716;23.560;2023-07-30T07:13:07;30;29;20
70520;PMS5003;58442;52.716;23.560;2023-07-30T07:15:15;20;20;14
70520;PMS5003;58442;52.716;23.560;2023-07-30T07:17:17;55;46;28
70520;PMS5003;58442;52.716;23.560;2023-07-30T07:19:18;45;39;24
70520;PMS5003;58442;52.716;23.560;2023-07-30T07:22:25;40;36;24
70520;PMS5003;58442;52.716;23.560;2023-07-30T07:24:26;63;52;33
70520;PMS5003;58442;52.716;23.560;2023-07-30T07:26:28;27;27;17
70520;PMS5003;58442;52.716;23.560;2023-07-30T07:28:40;12;12;9
70520;PMS5003;58442;52.716;23.560;2023-07-30T07:30:41;20;19;14
70520;PMS5003;58442;52.716;23.560;2023-07-30T07:32:44;42;37;25
70520;PMS5003;58442;52.716;23.560;2023-07-30T07:34:50;84;83;45
70520;PMS5003;58442;52.716;23.560;2023-07-30T07:36:55;18;18;12
70520;PMS5003;58442;52.716;23.560;2023-07-30T07:38:56;13;13;9
70520;PMS5003;58442;52.716;23.560;2023-07-30T07:40:57;18;18;13
70520;PMS5003;58442;52.716;23.560;2023-07-30T07:42:59;20;20;16
70520;PMS5003;58442;52.716;23.560;2023-07-30T07:45:09;45;38;25
70520;PMS5003;58442;52.716;23.560;2023-07-30T07:47:11;33;32;22
70520;PMS5003;58442;52.716;23.560;2023-07-30T07:49:12;13;13;11
70520;PMS5003;58442;52.716;23.560;2023-07-30T07:51:14;17;17;13
70520;PMS5003;58442;52.716;23.560;2023-07-30T07:53:24;11;11;9
70520;PMS5003;58442;52.716;23.560;2023-07-30T07:55:25;7;7;6
70520;PMS5003;58442;52.716;23.560;2023-07-30T07:57:27;6;6;6
70520;PMS5003;58442;52.716;23.560;2023-07-30T07:59:30;11;11;9
70520;PMS5003;58442;52.716;23.560;2023-07-30T08:01:39;14;14;10
70520;PMS5003;58442;52.716;23.560;2023-07-30T08:03:40;9;9;7
70520;PMS5003;58442;52.716;23.560;2023-07-30T08:05:42;13;12;10
70520;PMS5003;58442;52.716;23.560;2023-07-30T08:07:44;16;16;11
70520;PMS5003;58442;52.716;23.560;2023-07-30T08:09:54;31;30;19
70520;PMS5003;58442;52.716;23.560;2023-07-30T08:11:55;11;11;8
70520;PMS5003;58442;52.716;23.560;2023-07-30T08:13:56;23;23;18
70520;PMS5003;58442;52.716;23.560;2023-07-30T08:15:58;23;23;15
70520;PMS5003;58442;52.716;23.560;2023-07-30T08:18:08;5;5;4
70520;PMS5003;58442;52.716;23.560;2023-07-30T08:20:10;7;7;5
70520;PMS5003;58442;52.716;23.560;2023-07-30T08:22:12;36;31;21
70520;PMS5003;58442;52.716;23.560;2023-07-30T08:24:13;6;6;5
70520;PMS5003;58442;52.716;23.560;2023-07-30T08:26:23;37;34;21
70520;PMS5003;58442;52.716;23.560;2023-07-30T08:28:24;48;41;25
70520;PMS5003;58442;52.716;23.560;2023-07-30T08:30:26;26;26;19
70520;PMS5003;58442;52.716;23.560;2023-07-30T08:32:27;27;27;18
70520;PMS5003;58442;52.716;23.560;2023-07-30T08:34:38;10;10;8
70520;PMS5003;58442;52.716;23.560;2023-07-30T08:36:39;19;19;13
70520;PMS5003;58442;52.716;23.560;2023-07-30T08:38:40;31;30;19
70520;PMS5003;58442;52.716;23.560;2023-07-30T08:40:42;9;9;7
70520;PMS5003;58442;52.716;23.560;2023-07-30T08:42:52;13;13;10
70520;PMS5003;58442;52.716;23.560;2023-07-30T08:44:54;20;20;17
70520;PMS5003;58442;52.716;23.560;2023-07-30T08:46:56;38;35;23
70520;PMS5003;58442;52.716;23.560;2023-07-30T08:48:57;40;36;24
70520;PMS5003;58442;52.716;23.560;2023-07-30T08:51:07;22;22;18
70520;PMS5003;58442;52.716;23.560;2023-07-30T08:53:08;15;15;12
70520;PMS5003;58442;52.716;23.560;2023-07-30T08:55:11;15;15;12
70520;PMS5003;58442;52.716;23.560;2023-07-30T08:57:12;28;27;20
70520;PMS5003;58442;52.716;23.560;2023-07-30T08:59:22;9;9;8
70520;PMS5003;58442;52.716;23.560;2023-07-30T09:01:29;7;7;6
70520;PMS5003;58442;52.716;23.560;2023-07-30T09:03:34;8;8;6
70520;PMS5003;58442;52.716;23.560;2023-07-30T09:05:41;49;42;29
70520;PMS5003;58442;52.716;23.560;2023-07-30T09:07:42;21;21;18
70520;PMS5003;58442;52.716;23.560;2023-07-30T09:09:44;10;10;8
70520;PMS5003;58442;52.716;23.560;2023-07-30T09:13:57;10;10;8
70520;PMS5003;58442;52.716;23.560;2023-07-30T09:16:07;18;18;12
70520;PMS5003;58442;52.716;23.560;2023-07-30T09:18:16;18;18;12
70520;PMS5003;58442;52.716;23.560;2023-07-30T09:20:19;17;17;11
70520;PMS5003;58442;52.716;23.560;2023-07-30T09:24:28;5;5;4
70520;PMS5003;58442;52.716;23.560;2023-07-30T09:26:29;5;5;5
70520;PMS5003;58442;52.716;23.560;2023-07-30T09:28:31;6;6;5
70520;PMS5003;58442;52.716;23.560;2023-07-30T09:30:32;6;6;5
70520;PMS5003;58442;52.716;23.560;2023-07-30T09:32:37;5;5;5
70520;PMS5003;58442;52.716;23.560;2023-07-30T09:34:44;7;7;5
70520;PMS5003;58442;52.716;23.560;2023-07-30T09:36:47;5;5;5
70520;PMS5003;58442;52.716;23.560;2023-07-30T09:38:51;8;8;7
70520;PMS5003;58442;52.716;23.560;2023-07-30T09:40:52;8;8;8
70520;PMS5003;58442;52.716;23.560;2023-07-30T09:42:58;5;5;4
70520;PMS5003;58442;52.716;23.560;2023-07-30T09:44:59;3;3;3
70520;PMS5003;58442;52.716;23.560;2023-07-30T09:47:01;6;6;5
70520;PMS5003;58442;52.716;23.560;2023-07-30T09:49:08;4;4;3
70520;PMS5003;58442;52.716;23.560;2023-07-30T09:51:12;4;4;4
70520;PMS5003;58442;52.716;23.560;2023-07-30T09:53:15;4;4;4
70520;PMS5003;58442;52.716;23.560;2023-07-30T09:55:18;4;4;4
70520;PMS5003;58442;52.716;23.560;2023-07-30T09:57:22;3;3;3
70520;PMS5003;58442;52.716;23.560;2023-07-30T09:59:27;5;5;4
70520;PMS5003;58442;52.716;23.560;2023-07-30T10:01:28;3;3;3
70520;PMS5003;58442;52.716;23.560;2023-07-30T10:03:32;4;4;3
70520;PMS5003;58442;52.716;23.560;2023-07-30T10:05:36;5;5;3
70520;PMS5003;58442;52.716;23.560;2023-07-30T10:10:03;3;3;2
70520;PMS5003;58442;52.716;23.560;2023-07-30T10:12:05;3;3;3
70520;PMS5003;58442;52.716;23.560;2023-07-30T10:14:08;3;3;3
70520;PMS5003;58442;52.716;23.560;2023-07-30T10:16:10;4;4;4
70520;PMS5003;58442;52.716;23.560;2023-07-30T10:18:18;4;4;3
70520;PMS5003;58442;52.716;23.560;2023-07-30T10:20:22;4;4;4
70520;PMS5003;58442;52.716;23.560;2023-07-30T10:22:25;0;0;0
70520;PMS5003;58442;52.716;23.560;2023-07-30T10:24:26;6;6;5
70520;PMS5003;58442;52.716;23.560;2023-07-30T10:26:33;5;5;4
70520;PMS5003;58442;52.716;23.560;2023-07-30T10:28:37;6;6;5
70520;PMS5003;58442;52.716;23.560;2023-07-30T10:30:44;5;5;4
70520;PMS5003;58442;52.716;23.560;2023-07-30T10:32:59;7;7;6
70520;PMS5003;58442;52.716;23.560;2023-07-30T10:35:03;3;3;2
70520;PMS5003;58442;52.716;23.560;2023-07-30T10:37:09;2;2;2
70520;PMS5003;58442;52.716;23.560;2023-07-30T10:41:26;2;2;2
70520;PMS5003;58442;52.716;23.560;2023-07-30T10:43:30;3;3;3
70520;PMS5003;58442;52.716;23.560;2023-07-30T10:45:35;4;4;4
70520;PMS5003;58442;52.716;23.560;2023-07-30T10:47:36;5;5;4
70520;PMS5003;58442;52.716;23.560;2023-07-30T10:49:38;4;4;4
70520;PMS5003;58442;52.716;23.560;2023-07-30T10:51:47;2;2;2
70520;PMS5003;58442;52.716;23.560;2023-07-30T10:53:49;3;3;2
70520;PMS5003;58442;52.716;23.560;2023-07-30T10:55:52;1;1;1
70520;PMS5003;58442;52.716;23.560;2023-07-30T10:57:54;4;4;4
70520;PMS5003;58442;52.716;23.560;2023-07-30T10:59:56;4;4;4
70520;PMS5003;58442;52.716;23.560;2023-07-30T11:01:59;4;4;3
70520;PMS5003;58442;52.716;23.560;2023-07-30T11:04:00;3;3;3
70520;PMS5003;58442;52.716;23.560;2023-07-30T11:06:02;4;4;4
70520;PMS5003;58442;52.716;23.560;2023-07-30T11:08:04;11;11;6
70520;PMS5003;58442;52.716;23.560;2023-07-30T11:10:14;34;32;17
70520;PMS5003;58442;52.716;23.560;2023-07-30T11:12:15;30;28;14
70520;PMS5003;58442;52.716;23.560;2023-07-30T11:14:23;15;14;12
70520;PMS5003;58442;52.716;23.560;2023-07-30T11:16:28;32;31;22
70520;PMS5003;58442;52.716;23.560;2023-07-30T11:18:33;8;8;8
70520;PMS5003;58442;52.716;23.560;2023-07-30T11:20:36;6;6;5
70520;PMS5003;58442;52.716;23.560;2023-07-30T11:22:38;7;7;6
70520;PMS5003;58442;52.716;23.560;2023-07-30T11:24:39;12;12;10
70520;PMS5003;58442;52.716;23.560;2023-07-30T11:26:43;7;7;6
70520;PMS5003;58442;52.716;23.560;2023-07-30T11:28:45;6;6;6
70520;PMS5003;58442;52.716;23.560;2023-07-30T11:30:47;18;18;13
70520;PMS5003;58442;52.716;23.560;2023-07-30T11:32:51;6;6;6
70520;PMS5003;58442;52.716;23.560;2023-07-30T11:34:57;3;3;3
70520;PMS5003;58442;52.716;23.560;2023-07-30T11:36:59;4;4;3
70520;PMS5003;58442;52.716;23.560;2023-07-30T11:39:00;3;3;3
70520;PMS5003;58442;52.716;23.560;2023-07-30T11:41:02;4;4;3
70520;PMS5003;58442;52.716;23.560;2023-07-30T11:43:12;3;3;3
70520;PMS5003;58442;52.716;23.560;2023-07-30T11:45:21;3;3;3
70520;PMS5003;58442;52.716;23.560;2023-07-30T11:47:24;3;3;2
70520;PMS5003;58442;52.716;23.560;2023-07-30T11:49:25;4;4;3
70520;PMS5003;58442;52.716;23.560;2023-07-30T11:51:28;2;2;1
70520;PMS5003;58442;52.716;23.560;2023-07-30T11:55:44;4;4;4
70520;PMS5003;58442;52.716;23.560;2023-07-30T11:57:46;3;3;3
70520;PMS5003;58442;52.716;23.560;2023-07-30T11:59:48;2;2;2
70520;PMS5003;58442;52.716;23.560;2023-07-30T12:01:49;3;3;2
70520;PMS5003;58442;52.716;23.560;2023-07-30T12:04:00;2;2;2
70520;PMS5003;58442;52.716;23.560;2023-07-30T12:06:05;2;2;2
70520;PMS5003;58442;52.716;23.560;2023-07-30T12:08:12;2;2;2
70520;PMS5003;58442;52.716;23.560;2023-07-30T12:10:24;3;3;3
70520;PMS5003;58442;52.716;23.560;2023-07-30T12:12:25;3;3;3
70520;PMS5003;58442;52.716;23.560;2023-07-30T12:14:29;3;3;3
70520;PMS5003;58442;52.716;23.560;2023-07-30T12:16:40;3;3;3
70520;PMS5003;58442;52.716;23.560;2023-07-30T12:18:42;9;9;6
70520;PMS5003;58442;52.716;23.560;2023-07-30T12:20:43;3;3;3
70520;PMS5003;58442;52.716;23.560;2023-07-30T12:22:44;5;5;5
70520;PMS5003;58442;52.716;23.560;2023-07-30T12:24:46;6;6;5
70520;PMS5003;58442;52.716;23.560;2023-07-30T12:26:53;9;9;6
70520;PMS5003;58442;52.716;23.560;2023-07-30T12:28:55;10;10;8
70520;PMS5003;58442;52.716;23.560;2023-07-30T12:30:56;6;6;5
70520;PMS5003;58442;52.716;23.560;2023-07-30T12:32:57;7;7;5
70520;PMS5003;58442;52.716;23.560;2023-07-30T12:35:08;6;6;5
70520;PMS5003;58442;52.716;23.560;2023-07-30T12:37:09;8;8;6
70520;PMS5003;58442;52.716;23.560;2023-07-30T12:39:11;8;8;7
70520;PMS5003;58442;52.716;23.560;2023-07-30T12:41:12;4;4;4
70520;PMS5003;58442;52.716;23.560;2023-07-30T12:43:22;3;3;2
70520;PMS5003;58442;52.716;23.560;2023-07-30T12:45:25;4;4;4
70520;PMS5003;58442;52.716;23.560;2023-07-30T12:47:26;2;2;1
70520;PMS5003;58442;52.716;23.560;2023-07-30T12:49:27;5;5;5
70520;PMS5003;58442;52.716;23.560;2023-07-30T12:51:37;3;3;3
70520;PMS5003;58442;52.716;23.560;2023-07-30T12:53:38;3;3;3
70520;PMS5003;58442;52.716;23.560;2023-07-30T12:55:40;4;4;4
70520;PMS5003;58442;52.716;23.560;2023-07-30T12:57:41;3;3;3
70520;PMS5003;58442;52.716;23.560;2023-07-30T12:59:52;3;3;3
70520;PMS5003;58442;52.716;23.560;2023-07-30T13:01:53;4;4;3
70520;PMS5003;58442;52.716;23.560;2023-07-30T13:03:55;6;6;5
70520;PMS5003;58442;52.716;23.560;2023-07-30T13:05:56;2;2;2
70520;PMS5003;58442;52.716;23.560;2023-07-30T13:08:06;3;3;3
70520;PMS5003;58442;52.716;23.560;2023-07-30T13:10:08;5;5;4
70520;PMS5003;58442;52.716;23.560;2023-07-30T13:12:10;5;5;4
70520;PMS5003;58442;52.716;23.560;2023-07-30T13:14:11;3;3;2
70520;PMS5003;58442;52.716;23.560;2023-07-30T13:16:21;2;2;2
70520;PMS5003;58442;52.716;23.560;2023-07-30T13:18:22;4;4;3
70520;PMS5003;58442;52.716;23.560;2023-07-30T13:20:24;2;2;2
70520;PMS5003;58442;52.716;23.560;2023-07-30T13:22:25;2;2;2
70520;PMS5003;58442;52.716;23.560;2023-07-30T13:24:35;5;5;4
70520;PMS5003;58442;52.716;23.560;2023-07-30T13:26:37;3;3;3
70520;PMS5003;58442;52.716;23.560;2023-07-30T13:28:39;4;4;3
70520;PMS5003;58442;52.716;23.560;2023-07-30T13:30:40;3;3;2
70520;PMS5003;58442;52.716;23.560;2023-07-30T13:32:50;2;2;2
70520;PMS5003;58442;52.716;23.560;2023-07-30T13:34:51;4;4;3
70520;PMS5003;58442;52.716;23.560;2023-07-30T13:36:53;4;4;3
70520;PMS5003;58442;52.716;23.560;2023-07-30T13:38:55;2;2;2
70520;PMS5003;58442;52.716;23.560;2023-07-30T13:41:07;3;3;3
70520;PMS5003;58442;52.716;23.560;2023-07-30T13:43:09;3;3;2
70520;PMS5003;58442;52.716;23.560;2023-07-30T13:45:10;5;5;4